createdAt,value
2023-04-10T00:03:32.367Z,73.6
2023-04-10T00:08:48.765Z,73.6
2023-04-10T00:13:45.101Z,73.5
2023-04-10T00:19:01.565Z,73.6
2023-04-10T00:29:14.290Z,73.5
2023-04-10T00:34:20.668Z,73.4
2023-04-10T00:44:33.423Z,73.5
2023-04-10T00:49:29.812Z,73.4
2023-04-10T00:56:06.392Z,73.5
2023-04-10T01:00:16.647Z,73.3
2023-04-10T01:04:48.943Z,73.3
2023-04-10T01:10:05.346Z,73.3
2023-04-10T01:15:11.755Z,73.2
2023-04-10T01:20:18.075Z,73.7
2023-04-10T01:25:24.508Z,73.2
2023-04-10T01:30:30.916Z,73.1
2023-04-10T01:35:27.213Z,73.1
2023-04-10T01:40:43.598Z,73.2
2023-04-10T01:45:50.046Z,73.1
2023-04-10T01:51:59.504Z,73.0
2023-04-10T02:01:49.293Z,72.9
2023-04-10T02:06:45.565Z,73.0
2023-04-10T02:12:36.066Z,72.9
2023-04-10T02:17:47.557Z,72.8
2023-04-10T02:22:49.848Z,72.8
2023-04-10T02:28:00.220Z,73.0
2023-04-10T02:33:23.763Z,72.8
2023-04-10T02:43:16.528Z,72.8
2023-04-10T02:48:13.009Z,72.9
2023-04-10T02:58:25.770Z,72.9
2023-04-10T03:03:41.287Z,72.9
2023-04-10T03:08:48.586Z,72.8
2023-04-10T03:13:44.930Z,72.8
2023-04-10T03:19:01.455Z,72.8
2023-04-10T03:24:07.844Z,72.9
2023-04-10T03:29:14.765Z,73.1
2023-04-10T03:34:21.190Z,72.9
2023-04-10T03:39:27.596Z,73.0
2023-04-10T03:44:34.088Z,73.0
2023-04-10T03:49:40.608Z,72.9
2023-04-10T03:59:53.343Z,73.1
2023-04-10T04:10:26.169Z,72.9
2023-04-10T04:15:12.506Z,72.7
2023-04-10T04:20:09.059Z,72.8
2023-04-10T04:25:15.449Z,72.6
2023-04-10T04:30:59.496Z,72.7
2023-04-10T04:35:41.801Z,72.7
2023-04-10T04:40:38.146Z,72.7
2023-04-10T04:45:54.601Z,72.6
2023-04-10T04:51:01.104Z,72.6
2023-04-10T04:56:07.474Z,72.4
2023-04-10T05:01:13.901Z,72.5
2023-04-10T05:06:20.261Z,72.3
2023-04-10T05:11:30.208Z,72.4
2023-04-10T05:17:15.662Z,72.5
2023-04-10T05:21:45.536Z,72.6
2023-04-10T05:26:53.027Z,72.6
2023-04-10T05:31:59.332Z,72.6
2023-04-10T05:42:12.098Z,73.1
2023-04-10T05:47:19.638Z,73.9
2023-04-10T05:52:26.010Z,74.0
2023-04-10T06:02:38.864Z,74.5
2023-04-10T06:07:45.266Z,74.4
2023-04-10T06:12:51.627Z,74.0
2023-04-10T06:17:58.077Z,74.1
2023-04-10T06:23:04.418Z,74.2
2023-04-10T06:28:10.909Z,75.3
2023-04-10T06:33:17.304Z,75.5
2023-04-10T06:38:23.682Z,76.0
2023-04-10T06:43:30.037Z,76.0
2023-04-10T06:48:26.395Z,76.0
2023-04-10T06:54:06.917Z,76.3
2023-04-10T06:58:49.793Z,76.8
2023-04-10T07:03:56.304Z,77.0
2023-04-10T07:09:02.816Z,77.4
2023-04-10T07:13:59.209Z,77.8
2023-04-10T07:19:17.161Z,77.3
2023-04-10T07:24:13.509Z,77.5
2023-04-10T07:29:19.922Z,77.4
2023-04-10T07:34:36.297Z,77.5
2023-04-10T07:39:42.674Z,77.3
2023-04-10T07:44:49.142Z,78.1
2023-04-10T07:49:55.612Z,77.9
2023-04-10T07:55:02.224Z,75.8
2023-04-10T08:00:32.684Z,76.4
2023-04-10T08:05:05.055Z,76.0
2023-04-10T08:10:45.418Z,75.0
2023-04-10T08:15:27.761Z,74.1
2023-04-10T08:20:34.728Z,73.2
2023-04-10T08:25:41.084Z,71.9
2023-04-10T08:30:47.519Z,72.0
2023-04-10T08:35:53.905Z,71.3
2023-04-10T08:41:00.238Z,70.5
2023-04-10T08:46:07.834Z,68.7
2023-04-10T08:51:19.444Z,66.6
2023-04-10T09:01:27.739Z,64.6
2023-04-10T09:06:34.117Z,64.4
2023-04-10T09:12:00.917Z,63.9
2023-04-10T09:16:46.851Z,63.8
2023-04-10T09:21:53.359Z,62.0
2023-04-10T09:26:59.799Z,60.3
2023-04-10T09:32:06.186Z,60.4
2023-04-10T09:37:32.641Z,61.4
2023-04-10T09:42:18.947Z,61.8
2023-04-10T09:47:49.400Z,61.2
2023-04-10T09:52:31.797Z,61.7
2023-04-10T09:57:38.352Z,61.6
2023-04-10T10:07:52.634Z,60.9
2023-04-10T10:13:19.130Z,61.7
2023-04-10T10:23:11.803Z,61.2
2023-04-10T10:33:24.679Z,61.4
2023-04-10T10:38:32.296Z,60.9
2023-04-10T10:43:38.679Z,59.4
2023-04-10T10:58:58.089Z,58.8
2023-04-10T11:04:04.819Z,58.2
2023-04-10T11:09:10.887Z,58.1
2023-04-10T11:14:17.278Z,59.1
2023-04-10T11:19:27.599Z,58.4
2023-04-10T11:24:33.742Z,58.1
2023-04-10T11:29:40.132Z,58.1
2023-04-10T11:44:59.276Z,57.3
2023-04-10T11:50:05.693Z,57.3
2023-04-10T11:55:26.187Z,58.2
2023-04-10T12:00:18.556Z,58.4
2023-04-10T12:05:24.889Z,58.1
2023-04-10T12:10:31.347Z,56.7
2023-04-10T12:15:57.763Z,55.8
2023-04-10T12:31:00.877Z,56.2
2023-04-10T12:36:03.320Z,55.9
2023-04-10T12:41:29.675Z,55.6
2023-04-10T12:46:16.069Z,55.9
2023-04-10T12:51:22.375Z,56.6
2023-04-10T12:56:28.771Z,55.5
2023-04-10T13:01:35.206Z,56.6
2023-04-10T13:06:41.568Z,56.9
2023-04-10T13:22:00.746Z,57.4
2023-04-10T13:27:27.168Z,57.1
2023-04-10T13:32:13.557Z,57.3
2023-04-10T13:37:21.097Z,56.4
2023-04-10T13:42:26.473Z,55.4
2023-04-10T13:47:23.879Z,54.5
2023-04-10T13:52:40.246Z,53.4
2023-04-10T13:57:36.610Z,53.4
2023-04-10T14:02:53.498Z,53.2
2023-04-10T14:07:59.515Z,54.0
2023-04-10T14:18:12.320Z,54.8
2023-04-10T14:28:25.031Z,55.5
2023-04-10T14:33:31.650Z,55.9
2023-04-10T14:48:40.894Z,57.8
2023-04-10T14:53:57.191Z,57.9
2023-04-10T14:59:03.476Z,58.5
2023-04-10T15:09:16.326Z,59.8
2023-04-10T15:14:22.724Z,60.3
2023-04-10T15:24:46.988Z,60.9
2023-04-10T15:30:15.931Z,61.0
2023-04-10T15:34:48.246Z,61.5
2023-04-10T15:39:44.624Z,61.7
2023-04-10T15:46:03.157Z,62.0
2023-04-10T15:50:27.468Z,62.2
2023-04-10T16:00:20.281Z,62.3
2023-04-10T16:05:50.696Z,62.5
2023-04-10T16:10:33.045Z,62.3
2023-04-10T16:15:39.593Z,62.5
2023-04-10T16:20:45.918Z,62.6
2023-04-10T16:25:52.302Z,62.9
2023-04-10T16:31:32.805Z,63.0
2023-04-10T16:36:40.165Z,63.3
2023-04-10T16:41:46.653Z,63.3
2023-04-10T16:48:27.271Z,63.4
2023-04-10T16:52:19.535Z,63.4
2023-04-10T16:56:55.849Z,63.5
2023-04-10T17:02:12.285Z,63.6
2023-04-10T17:07:18.754Z,63.8
2023-04-10T17:12:45.088Z,64.0
2023-04-10T17:17:55.506Z,63.7
2023-04-10T17:22:37.843Z,63.1
2023-04-10T17:27:44.212Z,62.9
2023-04-10T17:32:50.615Z,63.8
2023-04-10T17:37:56.989Z,66.1
2023-04-10T17:43:03.336Z,66.7
2023-04-10T17:48:33.781Z,67.4
2023-04-10T17:53:06.180Z,68.4
2023-04-10T17:58:22.450Z,69.0
2023-04-10T18:04:09.978Z,69.9
2023-04-10T18:08:58.404Z,69.8
2023-04-10T18:13:31.723Z,70.4
2023-04-10T18:18:48.157Z,70.7
2023-04-10T18:23:44.581Z,71.3
2023-04-10T18:29:25.054Z,71.2
2023-04-10T18:34:27.439Z,72.7
2023-04-10T18:39:13.771Z,72.5
2023-04-10T18:44:20.159Z,73.2
2023-04-10T18:49:27.131Z,73.5
2023-04-10T18:54:33.532Z,73.8
2023-04-10T18:59:39.909Z,74.6
2023-04-10T19:04:46.493Z,75.1
2023-04-10T19:09:52.688Z,76.2
2023-04-10T19:14:59.256Z,77.0
2023-04-10T19:20:05.755Z,77.6
2023-04-10T19:25:12.141Z,78.7
2023-04-10T19:30:42.585Z,78.5
2023-04-10T19:35:24.946Z,79.5
2023-04-10T19:40:31.291Z,79.2
2023-04-10T19:45:37.669Z,79.0
2023-04-10T19:50:44.115Z,78.9
2023-04-10T19:55:50.423Z,79.6
2023-04-10T20:00:56.808Z,80.1
2023-04-10T20:06:03.319Z,80.2
2023-04-10T20:11:09.916Z,80.5
2023-04-10T20:16:16.345Z,80.4
2023-04-10T20:21:22.783Z,80.4
2023-04-10T20:26:29.099Z,80.6
2023-04-10T20:31:37.659Z,80.3
2023-04-10T20:36:45.127Z,81.0
2023-04-10T20:41:56.153Z,80.4
2023-04-10T20:47:02.642Z,80.5
2023-04-10T20:52:08.999Z,80.3
2023-04-10T20:57:15.370Z,80.9
2023-04-10T21:02:21.863Z,80.8
2023-04-10T21:07:28.151Z,80.9
2023-04-10T21:12:34.528Z,81.1
2023-04-10T21:22:51.910Z,80.5
2023-04-10T21:28:16.489Z,80.5
2023-04-10T21:33:06.470Z,80.9
2023-04-10T21:38:12.844Z,81.1
2023-04-10T21:43:19.266Z,81.1
2023-04-10T21:49:24.000Z,80.7
2023-04-10T21:54:07.366Z,81.0
2023-04-10T22:04:20.305Z,81.2
2023-04-10T22:10:18.737Z,81.6
2023-04-10T22:14:53.021Z,81.5
2023-04-10T22:19:39.356Z,81.9
2023-04-10T22:24:45.750Z,82.0
2023-04-10T22:30:06.203Z,81.7
2023-04-10T22:34:58.505Z,82.6
2023-04-10T22:40:05.020Z,82.3
2023-04-10T22:45:03.526Z,82.2
2023-04-10T22:55:25.390Z,83.6
2023-04-10T23:00:22.670Z,83.2
2023-04-10T23:05:59.108Z,83.9
2023-04-10T23:10:45.476Z,83.1
2023-04-10T23:15:51.993Z,83.3
2023-04-10T23:20:58.359Z,83.7
2023-04-10T23:36:07.512Z,83.9
2023-04-10T23:41:24.084Z,84.3
2023-04-10T23:46:30.560Z,84.3
2023-04-10T23:51:36.859Z,85.8
2023-04-10T23:56:43.233Z,87.3
